Time;durP1;ratioP1;P1;durP2;ratioP2;P2;SDS_P1;SDS_P2;PMS_P1;PMS_P2;Temp;Humidity;BMP_temperature;BMP_pressure;BME280_temperature;BME280_humidity;BME280_pressure;Samples;Min_cycle;Max_cycle;Signal;HPM_P1;HPM_P2
2023/08/16 00:04:11;;;;;;;;;;;;;;;18.87;100.00;95983.16;10498936;28;2213;-68
2023/08/16 00:09:14;;;;;;;;;;;;;;;19.01;100.00;95993.88;10505157;28;2146;-68
2023/08/16 00:14:17;;;;;;;;;;;;;;;19.17;100.00;95997.72;10492527;28;2175;-68
2023/08/16 00:19:20;;;;;;;;;;;;;;;19.13;100.00;95993.25;10482204;28;2058;-68
2023/08/16 00:24:24;;;;;;;;;;;;;;;19.12;100.00;95984.25;10498516;28;2029;-68
2023/08/16 00:29:26;;;;;;;;;;;;;;;19.63;100.00;95976.31;10506379;28;1980;-69
2023/08/16 00:34:29;;;;;;;;;;;;;;;20.05;100.00;95968.28;10499796;28;1986;-68
2023/08/16 00:39:32;;;;;;;;;;;;;;;19.85;100.00;95959.72;10496937;28;1986;-69
2023/08/16 00:44:36;;;;;;;;;;;;;;;19.64;100.00;95965.06;10499080;28;4555;-68
2023/08/16 00:49:42;;;;;;;;;;;;;;;19.22;100.00;95963.28;10509634;28;2009;-69
2023/08/16 00:54:45;;;;;;;;;;;;;;;19.15;100.00;95966.50;10503899;28;1955;-70
2023/08/16 00:59:51;;;;;;;;;;;;;;;19.17;100.00;95956.06;10501844;28;2058;-68
2023/08/16 01:04:54;;;;;;;;;;;;;;;19.22;100.00;95958.63;10520314;28;2038;-68
2023/08/16 01:09:59;;;;;;;;;;;;;;;20.17;100.00;95941.09;10515095;28;1964;-68
2023/08/16 01:15:03;;;;;;;;;;;;;;;19.61;100.00;95943.13;10505325;28;1950;-68
2023/08/16 01:20:07;;;;;;;;;;;;;;;19.98;100.00;95945.03;10528336;28;2076;-68
2023/08/16 01:25:12;;;;;;;;;;;;;;;20.22;100.00;95930.75;10514747;28;2200;-69
2023/08/16 01:30:17;;;;;;;;;;;;;;;19.89;100.00;95936.09;10517403;28;2271;-70
2023/08/16 01:35:20;;;;;;;;;;;;;;;20.06;100.00;95937.13;10515513;28;2129;-69
2023/08/16 01:40:27;;;;;;;;;;;;;;;19.71;100.00;95948.19;10505665;28;2053;-72
2023/08/16 01:45:31;;;;;;;;;;;;;;;19.66;100.00;95937.50;10524486;28;4743;-71
2023/08/16 01:50:34;;;;;;;;;;;;;;;19.81;100.00;95931.47;10527224;28;2045;-71
2023/08/16 01:55:37;;;;;;;;;;;;;;;19.74;100.00;95931.19;10529156;28;1931;-67
2023/08/16 02:00:40;;;;;;;;;;;;;;;19.84;100.00;95932.75;10523285;28;1967;-68
2023/08/16 02:05:45;;;;;;;;;;;;;;;19.78;100.00;95932.13;10485019;28;2166;-68
2023/08/16 02:10:48;;;;;;;;;;;;;;;19.81;100.00;95926.03;10525755;28;1977;-68
2023/08/16 02:15:53;;;;;;;;;;;;;;;19.74;100.00;95923.03;10526438;28;1977;-69
2023/08/16 02:20:56;;;;;;;;;;;;;;;19.73;100.00;95926.88;10528561;28;1977;-69
2023/08/16 02:25:59;;;;;;;;;;;;;;;19.62;100.00;95931.88;10524290;28;2001;-68
2023/08/16 02:31:06;;;;;;;;;;;;;;;19.67;100.00;95928.19;10502187;28;2532;-68
2023/08/16 02:36:09;;;;;;;;;;;;;;;19.70;100.00;95917.41;10515995;28;1935;-68
2023/08/16 02:41:13;;;;;;;;;;;;;;;19.54;100.00;95921.00;10508449;28;4541;-69
2023/08/16 02:46:16;;;;;;;;;;;;;;;19.27;100.00;95928.44;10519182;28;1993;-68
2023/08/16 02:51:20;;;;;;;;;;;;;;;19.34;100.00;95928.75;10525638;28;1956;-70
2023/08/16 02:56:23;;;;;;;;;;;;;;;19.16;100.00;95927.22;10499051;28;2077;-68
2023/08/16 03:01:27;;;;;;;;;;;;;;;19.10;100.00;95932.03;10501489;28;1930;-68
2023/08/16 03:06:30;;;;;;;;;;;;;;;19.36;100.00;95925.72;10515915;28;2066;-72
2023/08/16 03:11:34;;;;;;;;;;;;;;;19.10;100.00;95933.97;10522429;28;1982;-68
2023/08/16 03:16:37;;;;;;;;;;;;;;;19.23;100.00;95937.63;10505695;28;1963;-68
2023/08/16 03:21:40;;;;;;;;;;;;;;;18.96;100.00;95944.22;10504048;28;2041;-68
2023/08/16 03:26:43;;;;;;;;;;;;;;;18.99;100.00;95944.38;10522684;28;2319;-68
2023/08/16 03:31:46;;;;;;;;;;;;;;;19.26;100.00;95945.94;10511114;28;2220;-69
2023/08/16 03:36:50;;;;;;;;;;;;;;;19.08;100.00;95942.44;10508617;28;2148;-69
2023/08/16 03:41:53;;;;;;;;;;;;;;;19.04;100.00;95962.50;10517632;28;4739;-69
2023/08/16 03:46:56;;;;;;;;;;;;;;;18.51;100.00;95966.31;10518040;28;1982;-69
2023/08/16 03:52:03;;;;;;;;;;;;;;;18.81;100.00;95970.84;10522334;28;2324;-72
2023/08/16 03:57:06;;;;;;;;;;;;;;;18.47;100.00;95976.25;10521553;28;1937;-68
2023/08/16 04:02:09;;;;;;;;;;;;;;;18.33;100.00;95985.38;10521990;28;1927;-67
2023/08/16 04:07:13;;;;;;;;;;;;;;;18.28;100.00;95990.94;10502304;28;2011;-68
2023/08/16 04:12:16;;;;;;;;;;;;;;;18.47;100.00;95993.38;10520128;28;1971;-68
2023/08/16 04:17:19;;;;;;;;;;;;;;;18.24;100.00;95994.63;10499349;28;2116;-68
2023/08/16 04:22:25;;;;;;;;;;;;;;;18.02;100.00;96003.69;10520251;28;2389;-68
2023/08/16 04:27:29;;;;;;;;;;;;;;;17.86;100.00;96011.47;10501367;28;1992;-68
2023/08/16 04:32:35;;;;;;;;;;;;;;;17.79;100.00;96019.28;10520326;28;1891;-68
2023/08/16 04:37:43;;;;;;;;;;;;;;;17.86;100.00;96021.53;10515772;28;1935;-68
2023/08/16 04:42:49;;;;;;;;;;;;;;;17.80;100.00;96029.03;10518085;28;4529;-67
2023/08/16 04:47:53;;;;;;;;;;;;;;;18.16;100.00;96028.84;10499136;28;1958;-69
2023/08/16 04:52:57;;;;;;;;;;;;;;;18.26;100.00;96036.72;10482748;28;1926;-70
2023/08/16 04:58:06;;;;;;;;;;;;;;;18.45;100.00;96038.34;10517197;28;2009;-69
2023/08/16 05:03:12;;;;;;;;;;;;;;;18.28;100.00;96036.41;10521711;28;1917;-67
2023/08/16 05:08:16;;;;;;;;;;;;;;;18.20;100.00;96035.28;10516611;28;2166;-69
2023/08/16 05:13:23;;;;;;;;;;;;;;;19.22;100.00;96029.47;10515057;28;1925;-70
2023/08/16 05:18:27;;;;;;;;;;;;;;;19.59;100.00;96027.16;10517030;28;2501;-68
2023/08/16 05:23:30;;;;;;;;;;;;;;;19.69;100.00;96022.16;10514798;28;2448;-68
2023/08/16 05:28:34;;;;;;;;;;;;;;;19.63;100.00;96028.13;10498665;28;2047;-69
2023/08/16 05:33:39;;;;;;;;;;;;;;;19.88;100.00;96027.25;10519936;28;1942;-69
2023/08/16 05:38:44;;;;;;;;;;;;;;;20.28;100.00;96037.81;10517819;28;1986;-68
2023/08/16 05:43:48;;;;;;;;;;;;;;;20.04;100.00;96038.44;10508668;28;1998;-70
2023/08/16 05:48:55;;;;;;;;;;;;;;;19.99;100.00;96035.88;10498669;28;1862;-69
2023/08/16 05:53:58;;;;;;;;;;;;;;;20.56;100.00;96037.38;10512227;28;1920;-71
2023/08/16 05:59:01;;;;;;;;;;;;;;;21.03;100.00;96033.34;10514019;28;1994;-70
2023/08/16 06:04:04;;;;;;;;;;;;;;;21.45;100.00;96024.31;10522248;28;1999;-71
2023/08/16 06:09:07;;;;;;;;;;;;;;;21.67;100.00;96025.84;10493063;28;2052;-71
2023/08/16 06:14:10;;;;;;;;;;;;;;;21.54;100.00;96020.34;10519115;28;2209;-71
2023/08/16 06:19:18;;;;;;;;;;;;;;;21.94;100.00;96018.94;10517659;28;2317;-72
2023/08/16 06:24:21;;;;;;;;;;;;;;;22.14;100.00;96018.09;10523299;28;1985;-70
2023/08/16 06:29:25;;;;;;;;;;;;;;;22.11;100.00;96025.03;10519183;28;1947;-70
2023/08/16 06:34:29;;;;;;;;;;;;;;;22.42;100.00;96018.19;10514065;28;1913;-72
2023/08/16 06:39:33;;;;;;;;;;;;;;;22.57;100.00;96020.22;10514350;28;1981;-69
2023/08/16 06:44:35;;;;;;;;;;;;;;;22.54;100.00;96015.44;10516793;28;4624;-71
2023/08/16 06:49:46;;;;;;;;;;;;;;;22.74;100.00;96001.94;10520660;28;1979;-71
2023/08/16 06:54:52;;;;;;;;;;;;;;;23.03;100.00;96015.38;10515622;28;2089;-71
2023/08/16 06:59:56;;;;;;;;;;;;;;;23.30;100.00;96011.03;10515079;28;2010;-71
2023/08/16 07:04:59;;;;;;;;;;;;;;;23.61;100.00;95999.38;10519742;28;2230;-71
2023/08/16 07:10:09;;;;;;;;;;;;;;;24.03;100.00;95996.09;10515413;28;2263;-71
2023/08/16 07:15:16;;;;;;;;;;;;;;;24.34;100.00;95995.31;10514488;28;2002;-72
2023/08/16 07:20:19;;;;;;;;;;;;;;;24.50;100.00;95987.84;10506890;28;1994;-72
2023/08/16 07:25:27;;;;;;;;;;;;;;;24.23;100.00;95995.03;10513424;28;1969;-72
2023/08/16 07:30:33;;;;;;;;;;;;;;;24.44;100.00;95999.47;10500876;28;1869;-71
2023/08/16 07:35:35;;;;;;;;;;;;;;;24.58;100.00;95994.31;10514518;28;2011;-71
2023/08/16 07:40:41;;;;;;;;;;;;;;;25.24;100.00;96004.38;10504838;28;2062;-73
2023/08/16 07:45:44;;;;;;;;;;;;;;;25.45;100.00;96004.00;10503068;28;2000;-72
2023/08/16 07:50:47;;;;;;;;;;;;;;;25.12;100.00;96012.75;10508465;28;2098;-70
2023/08/16 07:56:00;;;;;;;;;;;;;;;25.35;100.00;96007.34;10507325;28;2225;-71
2023/08/16 08:01:03;;;;;;;;;;;;;;;25.68;100.00;96011.50;10496665;28;2331;-71
2023/08/16 08:06:09;;;;;;;;;;;;;;;25.08;100.00;95995.41;10521726;28;2285;-70
2023/08/16 08:11:14;;;;;;;;;;;;;;;25.35;100.00;96001.84;10507598;28;1981;-72
2023/08/16 08:16:20;;;;;;;;;;;;;;;25.35;100.00;95993.59;10508253;28;2090;-72
2023/08/16 08:21:27;;;;;;;;;;;;;;;25.54;100.00;95998.28;10509253;28;2080;-71
2023/08/16 08:26:31;;;;;;;;;;;;;;;25.68;100.00;95979.25;10502482;28;2098;-70
2023/08/16 08:31:36;;;;;;;;;;;;;;;26.00;100.00;95984.56;10511449;28;2113;-70
2023/08/16 08:36:39;;;;;;;;;;;;;;;26.15;100.00;95997.41;10506050;28;1945;-70
2023/08/16 08:41:44;;;;;;;;;;;;;;;26.07;100.00;95996.47;10508345;28;4691;-71
2023/08/16 08:46:51;;;;;;;;;;;;;;;26.40;100.00;96004.16;10511396;28;2110;-71
2023/08/16 08:52:05;;;;;;;;;;;;;;;26.30;100.00;95999.22;10506226;28;2146;-72
2023/08/16 08:57:13;;;;;;;;;;;;;;;26.35;100.00;95993.41;10506301;28;2138;-69
2023/08/16 09:02:17;;;;;;;;;;;;;;;26.08;100.00;95998.09;10531467;28;2648;-70
2023/08/16 09:07:22;;;;;;;;;;;;;;;26.13;100.00;96005.25;10514247;28;2275;-69
2023/08/16 09:12:25;;;;;;;;;;;;;;;26.37;100.00;95993.81;10514941;28;2208;-68
2023/08/16 09:17:29;;;;;;;;;;;;;;;26.16;100.00;95992.72;10511874;28;1969;-68
2023/08/16 09:22:32;;;;;;;;;;;;;;;26.24;100.00;95980.63;10510953;28;1910;-75
2023/08/16 09:27:36;;;;;;;;;;;;;;;26.31;100.00;95981.53;10509030;28;2044;-70
2023/08/16 09:32:40;;;;;;;;;;;;;;;26.25;100.00;95980.25;10508438;28;1933;-73
2023/08/16 09:37:45;;;;;;;;;;;;;;;26.29;100.00;95980.31;10512674;28;2059;-67
2023/08/16 09:42:48;;;;;;;;;;;;;;;26.44;100.00;95981.34;10512327;28;4493;-69
2023/08/16 09:47:52;;;;;;;;;;;;;;;26.73;100.00;95980.59;10518645;28;2172;-70
2023/08/16 09:52:58;;;;;;;;;;;;;;;26.08;100.00;95976.06;10501624;28;2049;-69
2023/08/16 09:58:04;;;;;;;;;;;;;;;26.17;100.00;95983.28;10519808;28;2458;-68
2023/08/16 10:03:09;;;;;;;;;;;;;;;26.32;100.00;95977.59;10516470;28;1973;-69
2023/08/16 10:08:13;;;;;;;;;;;;;;;26.51;100.00;95981.44;10517803;28;1999;-69
2023/08/16 10:13:18;;;;;;;;;;;;;;;26.59;100.00;95974.88;10516803;28;2059;-68
2023/08/16 10:18:21;;;;;;;;;;;;;;;26.49;100.00;95964.50;10519894;28;2135;-68
2023/08/16 10:23:24;;;;;;;;;;;;;;;26.34;100.00;95967.03;10489117;28;2012;-68
2023/08/16 10:28:27;;;;;;;;;;;;;;;26.67;100.00;95973.81;10491891;28;2006;-68
2023/08/16 10:33:33;;;;;;;;;;;;;;;26.65;100.00;95965.09;10503756;28;1873;-68
2023/08/16 10:38:37;;;;;;;;;;;;;;;27.14;100.00;95961.44;10496192;28;2079;-79
2023/08/16 10:43:48;;;;;;;;;;;;;;;27.36;100.00;95963.28;10523697;28;2009;-79
2023/08/16 10:49:01;;;;;;;;;;;;;;;27.58;100.00;95955.22;10519943;28;1959;-78
2023/08/16 10:54:06;;;;;;;;;;;;;;;27.45;100.00;95946.41;10487696;28;2641;-78
2023/08/16 10:59:13;;;;;;;;;;;;;;;27.10;100.00;95941.28;10508571;28;1970;-79
2023/08/16 11:04:20;;;;;;;;;;;;;;;27.41;100.00;95935.31;10495359;28;2026;-78
2023/08/16 11:09:33;;;;;;;;;;;;;;;27.34;100.00;95929.72;10502399;28;2044;-78
2023/08/16 11:14:39;;;;;;;;;;;;;;;27.94;100.00;95929.56;10518534;28;1899;-79
2023/08/16 11:19:46;;;;;;;;;;;;;;;27.39;100.00;95932.16;10519641;28;2077;-77
2023/08/16 11:24:53;;;;;;;;;;;;;;;27.03;100.00;95924.63;10488779;28;1996;-78
2023/08/16 11:29:59;;;;;;;;;;;;;;;27.30;100.00;95917.09;10525053;28;1841;-78
2023/08/16 11:35:08;;;;;;;;;;;;;;;27.28;100.00;95920.19;10518469;28;1881;-77
2023/08/16 11:40:22;;;;;;;;;;;;;;;27.54;100.00;95918.50;10519307;28;2012;-78
2023/08/16 11:45:29;;;;;;;;;;;;;;;27.62;100.00;95907.16;10502687;28;4768;-80
2023/08/16 11:50:42;;;;;;;;;;;;;;;27.58;100.00;95905.53;10505216;28;2378;-77
2023/08/16 11:55:59;;;;;;;;;;;;;;;27.80;100.00;95901.78;10505783;28;1994;-79
2023/08/16 12:01:18;;;;;;;;;;;;;;;27.56;100.00;95905.91;10521230;28;1826;-76
2023/08/16 12:06:24;;;;;;;;;;;;;;;27.80;100.00;95901.00;10512556;28;1967;-76
2023/08/16 12:11:30;;;;;;;;;;;;;;;27.80;100.00;95895.47;10517864;28;1901;-80
2023/08/16 12:16:37;;;;;;;;;;;;;;;27.61;100.00;95896.47;10522863;28;1830;-78
2023/08/16 12:21:44;;;;;;;;;;;;;;;28.08;100.00;95897.69;10506723;28;1955;-78
2023/08/16 12:26:53;;;;;;;;;;;;;;;28.06;100.00;95894.50;10518871;28;2012;-78
2023/08/16 12:31:58;;;;;;;;;;;;;;;27.70;100.00;95888.69;10500413;28;1961;-79
2023/08/16 12:37:12;;;;;;;;;;;;;;;28.37;100.00;95885.66;10502597;28;1849;-80
2023/08/16 12:42:19;;;;;;;;;;;;;;;28.52;100.00;95881.00;10514609;28;4726;-78
2023/08/16 12:47:25;;;;;;;;;;;;;;;28.43;100.00;95867.50;10518881;28;1961;-78
2023/08/16 12:52:29;;;;;;;;;;;;;;;28.53;100.00;95869.56;10516297;28;1825;-79
2023/08/16 12:57:35;;;;;;;;;;;;;;;28.43;100.00;95872.25;10516576;28;2018;-83
2023/08/16 13:02:48;;;;;;;;;;;;;;;28.49;100.00;95860.44;10520457;28;2079;-77
2023/08/16 13:08:11;;;;;;;;;;;;;;;28.46;100.00;95861.22;10525329;28;1986;-78
2023/08/16 13:13:31;;;;;;;;;;;;;;;28.60;100.00;95845.88;10534381;28;1877;-75
2023/08/16 13:18:36;;;;;;;;;;;;;;;29.02;100.00;95851.59;10539244;28;1908;-79
2023/08/16 13:24:16;;;;;;;;;;;;;;;29.00;98.84;95842.88;10546934;28;1919;-79
2023/08/16 13:29:46;;;;;;;;;;;;;;;29.13;97.69;95842.53;10551251;28;1908;-87
2023/08/16 13:35:03;;;;;;;;;;;;;;;28.50;97.50;95842.69;10554486;28;1779;-82
2023/08/16 13:40:25;;;;;;;;;;;;;;;28.73;96.29;95833.28;10534662;28;1974;-80
2023/08/16 13:45:36;;;;;;;;;;;;;;;28.35;100.00;95824.44;10553548;28;2029;-79
2023/08/16 13:50:42;;;;;;;;;;;;;;;28.63;98.95;95832.09;10552511;28;1884;-77
2023/08/16 14:01:31;;;;;;;;;;;;;;;28.35;100.00;95816.13;10546667;28;1970;-75
2023/08/16 14:06:34;;;;;;;;;;;;;;;28.21;100.00;95807.75;10526859;28;1973;-82
2023/08/16 14:11:48;;;;;;;;;;;;;;;28.40;100.00;95813.00;10544691;28;2278;-77
2023/08/16 14:16:52;;;;;;;;;;;;;;;28.47;100.00;95804.75;10527079;28;1835;-81
2023/08/16 14:22:00;;;;;;;;;;;;;;;28.76;100.00;95800.13;10527107;28;1825;-79
2023/08/16 14:27:10;;;;;;;;;;;;;;;28.84;100.00;95797.38;10507812;28;2149;-84
2023/08/16 14:32:27;;;;;;;;;;;;;;;28.90;99.29;95795.81;10528087;28;1950;-80
2023/08/16 14:37:37;;;;;;;;;;;;;;;28.79;94.35;95787.47;10506626;28;2377;-82
2023/08/16 14:42:48;;;;;;;;;;;;;;;28.89;97.73;95783.94;10520308;28;4622;-83
2023/08/16 14:47:53;;;;;;;;;;;;;;;28.75;94.13;95790.22;10526998;28;1914;-79
2023/08/16 14:53:18;;;;;;;;;;;;;;;28.67;94.21;95779.53;10529262;28;1853;-79
2023/08/16 14:58:23;;;;;;;;;;;;;;;28.85;100.00;95768.53;10535997;28;1834;-83
2023/08/16 15:03:28;;;;;;;;;;;;;;;28.88;100.00;95771.28;10519409;28;2029;-79
2023/08/16 15:08:44;;;;;;;;;;;;;;;28.84;100.00;95772.47;10504747;28;1937;-77
2023/08/16 15:19:23;;;;;;;;;;;;;;;28.46;98.12;95756.16;10541630;28;1853;-78
2023/08/16 15:24:28;;;;;;;;;;;;;;;28.68;96.97;95747.91;10540504;28;1976;-78
2023/08/16 15:29:47;;;;;;;;;;;;;;;28.75;100.00;95739.63;10541372;28;1867;-78
2023/08/16 15:34:53;;;;;;;;;;;;;;;28.47;100.00;95741.16;10536662;28;1892;-77
2023/08/16 15:40:00;;;;;;;;;;;;;;;28.42;100.00;95737.97;10503929;28;1829;-77
2023/08/16 15:45:07;;;;;;;;;;;;;;;28.04;100.00;95731.88;10539085;28;1909;-80
2023/08/16 15:50:14;;;;;;;;;;;;;;;27.84;100.00;95731.38;10540117;28;1828;-77
2023/08/16 15:55:21;;;;;;;;;;;;;;;27.75;100.00;95728.19;10537024;28;1904;-78
2023/08/16 16:00:34;;;;;;;;;;;;;;;27.79;100.00;95717.91;10535422;28;1947;-74
2023/08/16 16:05:39;;;;;;;;;;;;;;;27.66;100.00;95716.63;10523013;28;1950;-77
2023/08/16 16:10:45;;;;;;;;;;;;;;;27.59;100.00;95727.63;10538750;28;1888;-77
2023/08/16 16:15:56;;;;;;;;;;;;;;;27.45;100.00;95731.88;10511235;28;1894;-77
2023/08/16 16:21:13;;;;;;;;;;;;;;;27.39;100.00;95727.09;10516999;28;1793;-78
2023/08/16 16:26:22;;;;;;;;;;;;;;;27.24;99.90;95728.97;10541302;28;1915;-79
2023/08/16 16:31:38;;;;;;;;;;;;;;;27.15;97.15;95725.72;10518903;28;2247;-77
2023/08/16 16:36:43;;;;;;;;;;;;;;;27.11;100.00;95731.25;10515571;28;1830;-77
2023/08/16 16:41:50;;;;;;;;;;;;;;;26.89;100.00;95732.19;10535196;28;1563;-77
2023/08/16 16:46:55;;;;;;;;;;;;;;;26.88;100.00;95736.13;10522680;28;1918;-77
2023/08/16 16:52:01;;;;;;;;;;;;;;;26.75;100.00;95746.63;10514858;28;1839;-78
2023/08/16 16:57:11;;;;;;;;;;;;;;;26.60;100.00;95747.66;10517595;28;2063;-77
2023/08/16 17:02:21;;;;;;;;;;;;;;;26.59;100.00;95746.06;10535530;28;1884;-78
2023/08/16 17:07:26;;;;;;;;;;;;;;;26.52;100.00;95749.53;10510287;28;1918;-77
2023/08/16 17:12:34;;;;;;;;;;;;;;;26.39;100.00;95743.44;10526275;28;1861;-77
2023/08/16 17:17:37;;;;;;;;;;;;;;;26.30;100.00;95758.69;10494463;28;1677;-77
2023/08/16 17:22:59;;;;;;;;;;;;;;;26.16;100.00;95756.56;10532133;28;1384;-78
2023/08/16 17:28:04;;;;;;;;;;;;;;;26.10;100.00;95758.06;10520038;28;2297;-79
2023/08/16 17:33:10;;;;;;;;;;;;;;;26.03;100.00;95763.47;10511136;28;1463;-79
2023/08/16 17:38:18;;;;;;;;;;;;;;;25.83;100.00;95760.03;10540422;28;1421;-79
2023/08/16 17:43:22;;;;;;;;;;;;;;;25.68;100.00;95774.75;10521584;28;4612;-78
2023/08/16 17:48:30;;;;;;;;;;;;;;;25.58;100.00;95773.44;10537042;28;1926;-78
2023/08/16 17:53:40;;;;;;;;;;;;;;;25.44;100.00;95775.94;10541510;28;1415;-79
2023/08/16 17:58:57;;;;;;;;;;;;;;;25.34;100.00;95775.44;10540054;28;1685;-79
2023/08/16 18:04:00;;;;;;;;;;;;;;;25.16;100.00;95779.03;10546904;28;1546;-79
2023/08/16 18:09:16;;;;;;;;;;;;;;;24.98;100.00;95789.69;10543379;28;1951;-78
2023/08/16 18:14:23;;;;;;;;;;;;;;;24.79;100.00;95796.81;10540390;28;1636;-78
2023/08/16 18:19:32;;;;;;;;;;;;;;;24.58;100.00;95792.88;10525441;28;1465;-79
2023/08/16 18:24:59;;;;;;;;;;;;;;;24.37;100.00;95788.56;10515984;28;2409;-82
2023/08/16 18:30:13;;;;;;;;;;;;;;;24.18;100.00;95794.81;10540330;28;1982;-83
2023/08/16 18:35:41;;;;;;;;;;;;;;;24.05;100.00;95795.28;10536389;28;1937;-83
2023/08/16 18:40:45;;;;;;;;;;;;;;;23.87;100.00;95800.41;10518674;28;4714;-81
2023/08/16 18:45:48;;;;;;;;;;;;;;;23.72;100.00;95796.53;10536291;28;1961;-76
2023/08/16 18:50:52;;;;;;;;;;;;;;;23.55;100.00;95816.13;10535750;28;1977;-77
2023/08/16 18:56:00;;;;;;;;;;;;;;;23.39;100.00;95800.44;10531164;28;1905;-77
2023/08/16 19:01:04;;;;;;;;;;;;;;;23.30;100.00;95821.78;10534989;28;1879;-77
2023/08/16 19:06:07;;;;;;;;;;;;;;;23.16;100.00;95829.66;10512454;28;1958;-77
2023/08/16 19:11:12;;;;;;;;;;;;;;;23.00;100.00;95835.13;10533212;28;1889;-77
2023/08/16 19:16:15;;;;;;;;;;;;;;;22.97;100.00;95835.84;10537454;28;1845;-78
2023/08/16 19:21:19;;;;;;;;;;;;;;;22.89;100.00;95839.50;10529737;28;1837;-78
2023/08/16 19:26:24;;;;;;;;;;;;;;;22.80;100.00;95836.13;10514382;28;2169;-78
2023/08/16 19:31:33;;;;;;;;;;;;;;;22.70;100.00;95853.06;10536061;28;1918;-78
2023/08/16 19:36:44;;;;;;;;;;;;;;;22.65;100.00;95845.91;10508954;28;1871;-71
2023/08/16 19:41:47;;;;;;;;;;;;;;;22.62;100.00;95847.38;10519830;28;1863;-70
2023/08/16 19:46:51;;;;;;;;;;;;;;;22.57;100.00;95849.56;10516712;28;1922;-69
2023/08/16 19:51:55;;;;;;;;;;;;;;;22.43;100.00;95839.00;10516914;28;1869;-68
2023/08/16 19:57:01;;;;;;;;;;;;;;;22.33;100.00;95840.31;10483224;28;1917;-71
2023/08/16 20:02:05;;;;;;;;;;;;;;;22.29;100.00;95841.34;10499858;28;1912;-69
2023/08/16 20:07:09;;;;;;;;;;;;;;;22.26;100.00;95858.44;10518662;28;1930;-70
2023/08/16 20:12:13;;;;;;;;;;;;;;;22.08;100.00;95855.97;10488292;28;1880;-68
2023/08/16 20:17:16;;;;;;;;;;;;;;;22.05;100.00;95858.59;10515784;28;2242;-67
2023/08/16 20:22:20;;;;;;;;;;;;;;;21.97;100.00;95857.59;10517658;28;1943;-68
2023/08/16 20:27:24;;;;;;;;;;;;;;;21.93;100.00;95864.88;10516700;28;1971;-68
2023/08/16 20:32:28;;;;;;;;;;;;;;;21.82;100.00;95874.69;10509748;28;1973;-67
2023/08/16 20:42:59;;;;;;;;;;;;;;;21.90;100.00;95873.78;10533819;28;1841;-88
2023/08/16 20:48:09;;;;;;;;;;;;;;;21.80;100.00;95874.25;10520904;28;1917;-88
2023/08/16 20:53:16;;;;;;;;;;;;;;;21.77;100.00;95875.75;10540365;28;1899;-87
2023/08/16 20:58:31;;;;;;;;;;;;;;;21.79;100.00;95858.97;10525667;28;1913;-87
2023/08/16 21:03:41;;;;;;;;;;;;;;;21.86;100.00;95854.50;10535115;28;1960;-88
2023/08/16 21:08:52;;;;;;;;;;;;;;;21.94;100.00;95836.38;10532100;28;1960;-88
2023/08/16 21:14:17;;;;;;;;;;;;;;;21.74;100.00;95831.84;10526276;28;2421;-87
2023/08/16 21:19:23;;;;;;;;;;;;;;;21.77;100.00;95831.16;10537986;28;1902;-88
2023/08/16 21:24:26;;;;;;;;;;;;;;;21.62;100.00;95815.44;10517144;28;1972;-88
2023/08/16 21:29:35;;;;;;;;;;;;;;;21.47;100.00;95815.00;10516642;28;1928;-87
2023/08/16 21:34:45;;;;;;;;;;;;;;;21.38;100.00;95811.59;10528393;28;1896;-88
2023/08/16 21:39:59;;;;;;;;;;;;;;;21.38;100.00;95810.78;10546761;28;1875;-87
2023/08/16 21:45:21;;;;;;;;;;;;;;;21.46;100.00;95797.00;10515664;28;4434;-88
2023/08/16 21:50:30;;;;;;;;;;;;;;;21.22;100.00;95807.88;10535334;28;1959;-88
2023/08/16 21:55:38;;;;;;;;;;;;;;;21.13;100.00;95809.94;10542563;28;1881;-87
2023/08/16 22:00:55;;;;;;;;;;;;;;;21.02;100.00;95813.09;10527684;28;1874;-86
2023/08/16 22:06:02;;;;;;;;;;;;;;;21.09;100.00;95819.94;10540011;28;2060;-85
2023/08/16 22:11:28;;;;;;;;;;;;;;;21.07;100.00;95811.31;10535486;28;2270;-87
2023/08/16 22:16:33;;;;;;;;;;;;;;;21.04;100.00;95797.16;10545493;28;2135;-87
2023/08/16 22:21:41;;;;;;;;;;;;;;;21.07;100.00;95803.91;10532078;28;1843;-86
2023/08/16 22:26:55;;;;;;;;;;;;;;;21.02;100.00;95796.72;10548711;28;1910;-88
2023/08/16 22:32:05;;;;;;;;;;;;;;;21.08;100.00;95793.75;10530665;28;1871;-86
2023/08/16 22:37:19;;;;;;;;;;;;;;;20.89;100.00;95794.31;10526880;28;1926;-87
2023/08/16 22:42:51;;;;;;;;;;;;;;;20.74;100.00;95798.47;10543471;28;4532;-87
2023/08/16 22:47:54;;;;;;;;;;;;;;;20.88;100.00;95798.97;10539923;28;1966;-89
2023/08/16 22:52:59;;;;;;;;;;;;;;;20.73;100.00;95797.66;10543253;28;1862;-86
2023/08/16 22:58:11;;;;;;;;;;;;;;;20.60;100.00;95793.31;10540324;28;1973;-87
2023/08/16 23:03:19;;;;;;;;;;;;;;;20.51;100.00;95801.59;10525700;28;1900;-87
2023/08/16 23:08:30;;;;;;;;;;;;;;;20.56;100.00;95805.25;10537923;28;2484;-86
2023/08/16 23:13:57;;;;;;;;;;;;;;;20.32;100.00;95797.75;10538924;28;1884;-85
2023/08/16 23:19:08;;;;;;;;;;;;;;;20.19;100.00;95802.34;10540600;28;1953;-86
2023/08/16 23:29:46;;;;;;;;;;;;;;;20.09;100.00;95806.28;10530064;27;1947;-84
2023/08/16 23:34:49;;;;;;;;;;;;;;;20.12;100.00;95799.38;10533390;28;1849;-86
2023/08/16 23:39:51;;;;;;;;;;;;;;;20.03;100.00;95795.88;10525909;28;1929;-86
2023/08/16 23:44:54;;;;;;;;;;;;;;;20.06;100.00;95797.97;10533961;28;4497;-86
2023/08/16 23:49:56;;;;;;;;;;;;;;;20.16;100.00;95794.81;10532112;28;1983;-85
2023/08/16 23:54:59;;;;;;;;;;;;;;;20.12;100.00;95788.44;10528685;28;1896;-87
